createdAt,value
2023-03-04T00:00:01.620Z,3.80
2023-03-04T00:02:28.603Z,3.80
2023-03-04T00:04:55.552Z,3.80
2023-03-04T00:07:22.498Z,3.80
2023-03-04T00:09:49.440Z,3.80
2023-03-04T00:12:16.386Z,3.90
2023-03-04T00:14:43.440Z,3.90
2023-03-04T00:17:10.428Z,3.90
2023-03-04T00:19:37.399Z,3.90
2023-03-04T00:22:05.113Z,4.00
2023-03-04T00:24:32.569Z,3.90
2023-03-04T00:26:59.719Z,4.00
2023-03-04T00:29:27.011Z,4.00
2023-03-04T00:31:54.145Z,4.10
2023-03-04T00:34:21.663Z,4.10
2023-03-04T00:36:48.733Z,4.10
2023-03-04T00:39:15.985Z,4.10
2023-03-04T00:41:43.318Z,4.00
2023-03-04T00:44:10.430Z,4.10
2023-03-04T00:46:37.375Z,4.10
2023-03-04T00:49:04.668Z,4.00
2023-03-04T00:51:31.669Z,4.00
2023-03-04T00:54:00.831Z,3.90
2023-03-04T00:56:28.129Z,4.00
2023-03-04T00:58:55.214Z,4.00
2023-03-04T01:01:22.257Z,3.90
2023-03-04T01:03:49.178Z,4.00
2023-03-04T01:06:16.226Z,4.00
2023-03-04T01:08:43.254Z,4.00
2023-03-04T01:11:10.284Z,4.00
2023-03-04T01:13:37.505Z,4.10
2023-03-04T01:16:05.212Z,4.00
2023-03-04T01:18:32.473Z,4.00
2023-03-04T01:20:59.880Z,4.00
2023-03-04T01:23:26.924Z,4.00
2023-03-04T01:25:54.181Z,3.90
2023-03-04T01:28:21.242Z,3.90
2023-03-04T01:30:48.152Z,4.00
2023-03-04T01:33:15.628Z,4.00
2023-03-04T01:35:42.638Z,4.10
2023-03-04T01:38:09.600Z,4.20
2023-03-04T01:40:38.224Z,4.10
2023-03-04T01:43:05.505Z,4.10
2023-03-04T01:45:33.441Z,4.20
2023-03-04T01:48:00.534Z,4.10
2023-03-04T01:50:32.238Z,4.10
2023-03-04T01:52:59.443Z,4.10
2023-03-04T01:55:31.687Z,4.20
2023-03-04T01:57:58.718Z,4.10
2023-03-04T02:00:27.399Z,4.10
2023-03-04T02:03:19.798Z,4.10
2023-03-04T02:05:49.955Z,4.10
2023-03-04T02:08:20.368Z,4.10
2023-03-04T02:10:48.214Z,4.00
2023-03-04T02:13:16.453Z,4.00
2023-03-04T02:15:45.536Z,3.90
2023-03-04T02:18:21.881Z,3.70
2023-03-04T02:20:58.413Z,3.70
2023-03-04T02:23:41.381Z,3.70
2023-03-04T02:26:21.476Z,3.70
2023-03-04T02:28:50.212Z,3.70
2023-03-04T02:31:39.094Z,3.70
2023-03-04T02:34:12.157Z,3.70
2023-03-04T02:36:40.171Z,3.70
2023-03-04T02:39:54.414Z,3.60
2023-03-04T02:42:21.349Z,3.60
2023-03-04T02:44:50.466Z,3.60
2023-03-04T02:47:18.963Z,3.60
2023-03-04T02:49:46.647Z,3.50
2023-03-04T02:52:18.311Z,3.60
2023-03-04T02:54:45.414Z,3.50
2023-03-04T02:57:13.898Z,3.50
2023-03-04T02:59:42.283Z,3.60
2023-03-04T03:02:10.033Z,3.50
2023-03-04T03:04:39.320Z,3.40
2023-03-04T03:07:06.553Z,3.40
2023-03-04T03:09:33.447Z,3.40
2023-03-04T03:12:00.453Z,3.50
2023-03-04T03:14:27.378Z,3.40
2023-03-04T03:16:54.301Z,3.30
2023-03-04T03:19:21.238Z,3.30
2023-03-04T03:21:48.152Z,3.30
2023-03-04T03:24:15.541Z,3.30
2023-03-04T03:26:42.456Z,3.30
2023-03-04T03:29:09.306Z,3.20
2023-03-04T03:31:36.307Z,3.20
2023-03-04T03:34:03.224Z,3.30
2023-03-04T03:36:30.193Z,3.30
2023-03-04T03:38:57.156Z,3.30
2023-03-04T03:41:24.085Z,3.20
2023-03-04T03:43:50.977Z,3.10
2023-03-04T03:46:18.022Z,3.00
2023-03-04T03:48:44.862Z,3.00
2023-03-04T03:51:11.724Z,3.00
2023-03-04T03:53:38.617Z,3.00
2023-03-04T03:56:05.914Z,3.00
2023-03-04T03:58:33.021Z,3.00
2023-03-04T04:01:00.055Z,2.90
2023-03-04T04:03:27.013Z,2.90
2023-03-04T04:05:53.888Z,2.90
2023-03-04T04:08:20.903Z,2.90
2023-03-04T04:10:47.905Z,2.90
2023-03-04T04:13:14.891Z,2.90
2023-03-04T04:15:41.890Z,2.80
2023-03-04T04:18:09.091Z,2.80
2023-03-04T04:20:36.449Z,2.70
2023-03-04T04:23:03.902Z,2.70
2023-03-04T04:25:30.967Z,2.80
2023-03-04T04:27:57.868Z,2.70
2023-03-04T04:30:25.279Z,2.70
2023-03-04T04:32:52.259Z,2.60
2023-03-04T04:35:19.367Z,2.70
2023-03-04T04:37:46.309Z,2.60
2023-03-04T04:40:13.513Z,2.50
2023-03-04T04:42:40.498Z,2.50
2023-03-04T04:45:08.181Z,2.50
2023-03-04T04:47:35.192Z,2.50
2023-03-04T04:50:02.676Z,2.50
2023-03-04T04:52:29.637Z,2.60
2023-03-04T04:54:56.547Z,2.50
2023-03-04T04:57:23.601Z,2.50
2023-03-04T04:59:50.514Z,2.60
2023-03-04T05:02:17.515Z,2.60
2023-03-04T05:04:44.484Z,2.60
2023-03-04T05:07:11.508Z,2.60
2023-03-04T05:09:38.520Z,2.60
2023-03-04T05:12:05.559Z,2.50
2023-03-04T05:14:32.447Z,2.50
2023-03-04T05:16:59.579Z,2.50
2023-03-04T05:19:26.536Z,2.50
2023-03-04T05:21:53.429Z,2.50
2023-03-04T05:24:20.498Z,2.60
2023-03-04T05:26:47.794Z,2.60
2023-03-04T05:29:14.731Z,2.50
2023-03-04T05:31:41.653Z,2.60
2023-03-04T05:34:08.552Z,2.60
2023-03-04T05:36:35.497Z,2.60
2023-03-04T05:39:02.436Z,2.60
2023-03-04T05:41:29.313Z,2.60
2023-03-04T05:43:56.857Z,2.60
2023-03-04T05:46:25.769Z,2.60
2023-03-04T05:48:53.948Z,2.70
2023-03-04T05:51:22.091Z,2.70
2023-03-04T05:53:49.718Z,2.80
2023-03-04T05:56:19.554Z,2.80
2023-03-04T05:58:49.341Z,2.80
2023-03-04T06:01:17.316Z,2.80
2023-03-04T06:03:44.733Z,2.80
2023-03-04T06:06:11.697Z,2.80
2023-03-04T06:08:38.683Z,2.80
2023-03-04T06:11:06.131Z,2.80
2023-03-04T06:13:34.173Z,2.80
2023-03-04T06:16:01.790Z,2.80
2023-03-04T06:18:29.828Z,2.90
2023-03-04T06:21:01.758Z,2.90
2023-03-04T06:23:29.588Z,2.90
2023-03-04T06:25:58.506Z,2.90
2023-03-04T06:28:25.851Z,2.90
2023-03-04T06:30:53.445Z,2.90
2023-03-04T06:33:20.576Z,2.90
2023-03-04T06:35:47.866Z,3.00
2023-03-04T06:38:15.036Z,3.00
2023-03-04T06:40:41.958Z,3.20
2023-03-04T06:43:08.863Z,3.10
2023-03-04T06:45:35.782Z,3.30
2023-03-04T06:48:02.826Z,3.30
2023-03-04T06:50:29.714Z,3.30
2023-03-04T06:52:57.658Z,3.70
2023-03-04T06:55:24.995Z,3.70
2023-03-04T06:57:51.950Z,3.60
2023-03-04T07:00:19.642Z,3.50
2023-03-04T07:02:46.561Z,3.50
2023-03-04T07:05:13.547Z,3.40
2023-03-04T07:07:40.574Z,3.40
2023-03-04T07:10:08.066Z,3.50
2023-03-04T07:12:34.981Z,3.50
2023-03-04T07:15:02.063Z,3.50
2023-03-04T07:17:29.296Z,3.50
2023-03-04T07:19:56.192Z,3.50
2023-03-04T07:22:23.103Z,3.60
2023-03-04T07:24:50.133Z,3.50
2023-03-04T07:27:17.025Z,3.60
2023-03-04T07:29:43.961Z,3.50
2023-03-04T07:32:11.579Z,3.60
2023-03-04T07:34:38.661Z,3.60
2023-03-04T07:37:05.607Z,3.60
2023-03-04T07:39:32.520Z,3.60
2023-03-04T07:41:59.475Z,3.70
2023-03-04T07:44:26.412Z,3.80
2023-03-04T07:46:53.325Z,3.80
2023-03-04T07:49:20.202Z,3.90
2023-03-04T07:51:47.301Z,3.90
2023-03-04T07:54:14.306Z,4.00
2023-03-04T07:56:41.337Z,3.90
2023-03-04T07:59:08.298Z,3.70
2023-03-04T08:01:37.267Z,3.70
2023-03-04T08:04:06.465Z,3.80
2023-03-04T08:06:34.310Z,3.80
2023-03-04T08:09:06.551Z,3.80
2023-03-04T08:11:34.962Z,3.80
2023-03-04T08:14:02.095Z,3.80
2023-03-04T08:16:29.509Z,3.90
2023-03-04T08:18:59.384Z,3.90
2023-03-04T08:21:28.104Z,3.90
2023-03-04T08:23:57.392Z,3.90
2023-03-04T08:26:29.320Z,3.90
2023-03-04T08:28:57.696Z,3.90
2023-03-04T08:31:25.172Z,4.00
2023-03-04T08:33:53.113Z,3.90
2023-03-04T08:36:20.767Z,4.10
2023-03-04T08:38:47.714Z,4.00
2023-03-04T08:41:15.612Z,4.00
2023-03-04T08:43:42.863Z,4.10
2023-03-04T08:46:09.840Z,4.00
2023-03-04T08:48:38.364Z,3.90
2023-03-04T08:51:14.068Z,3.80
2023-03-04T08:53:41.672Z,3.80
2023-03-04T08:56:09.661Z,3.80
2023-03-04T08:58:36.801Z,3.90
2023-03-04T09:01:05.263Z,3.80
2023-03-04T09:03:32.340Z,3.80
2023-03-04T09:06:01.556Z,3.80
2023-03-04T09:08:28.573Z,3.90
2023-03-04T09:10:56.144Z,3.90
2023-03-04T09:13:26.126Z,3.70
2023-03-04T09:15:54.069Z,3.80
2023-03-04T09:18:23.637Z,3.70
2023-03-04T09:20:51.008Z,3.70
2023-03-04T09:23:18.465Z,3.70
2023-03-04T09:25:47.489Z,3.80
2023-03-04T09:28:15.397Z,3.80
2023-03-04T09:30:42.964Z,3.80
2023-03-04T09:33:10.784Z,3.80
2023-03-04T09:35:37.964Z,3.60
2023-03-04T09:38:05.168Z,3.50
2023-03-04T09:40:46.744Z,3.60
2023-03-04T09:43:30.161Z,3.60
2023-03-04T09:46:01.546Z,3.70
2023-03-04T09:48:33.127Z,3.60
2023-03-04T09:51:06.127Z,3.70
2023-03-04T09:53:49.600Z,3.80
2023-03-04T09:56:16.680Z,3.70
2023-03-04T09:59:11.674Z,3.70
2023-03-04T10:01:52.970Z,4.00
2023-03-04T10:04:25.975Z,3.90
2023-03-04T10:06:54.724Z,3.60
2023-03-04T10:09:33.605Z,3.60
2023-03-04T10:12:18.271Z,3.60
2023-03-04T10:15:00.606Z,3.50
2023-03-04T10:17:38.432Z,3.60
2023-03-04T10:20:38.304Z,3.70
2023-03-04T10:23:16.277Z,3.50
2023-03-04T10:25:46.819Z,3.50
2023-03-04T10:28:17.804Z,3.50
2023-03-04T10:31:23.041Z,3.80
2023-03-04T10:33:50.281Z,3.60
2023-03-04T10:36:29.450Z,3.30
2023-03-04T10:39:05.483Z,3.40
2023-03-04T10:41:33.104Z,3.30
2023-03-04T10:44:14.535Z,3.30
2023-03-04T10:46:46.718Z,3.30
2023-03-04T10:49:16.059Z,3.40
2023-03-04T10:51:45.778Z,3.30
2023-03-04T10:54:50.130Z,3.20
2023-03-04T10:57:21.224Z,3.30
2023-03-04T10:59:57.896Z,3.30
2023-03-04T11:02:42.728Z,3.50
2023-03-04T11:05:17.128Z,3.60
2023-03-04T11:08:00.530Z,3.40
2023-03-04T11:10:53.755Z,3.00
2023-03-04T11:13:23.445Z,2.90
2023-03-04T11:16:03.757Z,3.00
2023-03-04T11:18:42.684Z,2.90
2023-03-04T11:21:17.248Z,2.80
2023-03-04T11:24:27.256Z,3.00
2023-03-04T11:27:34.432Z,3.00
2023-03-04T11:30:25.298Z,3.20
2023-03-04T11:32:56.781Z,3.20
2023-03-04T11:35:37.353Z,3.30
2023-03-04T11:38:17.052Z,3.30
2023-03-04T11:40:55.244Z,3.40
2023-03-04T11:43:39.636Z,3.40
2023-03-04T11:46:25.928Z,3.50
2023-03-04T11:49:11.604Z,3.40
2023-03-04T11:52:03.297Z,3.40
2023-03-04T11:54:40.999Z,3.50
2023-03-04T11:57:18.844Z,3.60
2023-03-04T11:59:55.300Z,3.40
2023-03-04T12:02:25.769Z,3.20
2023-03-04T12:05:04.593Z,3.10
2023-03-04T12:08:37.888Z,3.10
2023-03-04T12:11:21.073Z,2.90
2023-03-04T12:14:09.497Z,3.10
2023-03-04T12:17:02.601Z,3.00
2023-03-04T12:20:08.061Z,2.70
2023-03-04T12:22:55.237Z,3.00
2023-03-04T12:25:40.719Z,3.00
2023-03-04T12:28:13.294Z,3.00
2023-03-04T12:30:55.390Z,3.20
2023-03-04T12:33:41.008Z,3.20
2023-03-04T12:36:28.871Z,3.30
2023-03-04T12:39:19.493Z,3.40
2023-03-04T12:42:20.833Z,3.00
2023-03-04T12:45:07.335Z,3.00
2023-03-04T12:47:56.113Z,3.00
2023-03-04T12:50:29.310Z,2.70
2023-03-04T12:53:17.697Z,2.70
2023-03-04T12:55:46.520Z,2.70
2023-03-04T12:58:23.633Z,2.60
2023-03-04T13:00:56.276Z,2.50
2023-03-04T13:03:53.387Z,2.60
2023-03-04T13:06:23.257Z,2.50
2023-03-04T13:09:17.594Z,2.40
2023-03-04T13:11:49.428Z,2.10
2023-03-04T13:14:18.277Z,1.80
2023-03-04T13:16:57.208Z,1.80
2023-03-04T13:19:49.038Z,1.80
2023-03-04T13:22:40.826Z,1.90
2023-03-04T13:25:44.042Z,2.00
2023-03-04T13:28:15.593Z,2.10
2023-03-04T13:30:55.904Z,2.30
2023-03-04T13:33:22.897Z,2.50
2023-03-04T13:36:04.477Z,2.50
2023-03-04T13:38:31.380Z,2.60
2023-03-04T13:41:19.895Z,2.80
2023-03-04T13:43:47.844Z,3.10
2023-03-04T13:46:20.586Z,3.20
2023-03-04T13:49:16.301Z,3.20
2023-03-04T13:51:45.289Z,2.50
2023-03-04T13:54:24.209Z,2.40
2023-03-04T13:57:19.508Z,2.30
2023-03-04T13:59:57.140Z,1.80
2023-03-04T14:02:26.196Z,1.90
2023-03-04T14:05:02.196Z,1.90
2023-03-04T14:07:32.046Z,1.90
2023-03-04T14:10:05.268Z,1.90
2023-03-04T14:12:37.629Z,1.80
2023-03-04T14:15:16.170Z,1.80
2023-03-04T14:17:49.521Z,1.80
2023-03-04T14:20:28.602Z,1.50
2023-03-04T14:22:56.598Z,1.40
2023-03-04T14:25:26.293Z,1.30
2023-03-04T14:28:14.443Z,1.10
2023-03-04T14:30:44.396Z,1.20
2023-03-04T14:33:44.021Z,1.30
2023-03-04T14:36:18.823Z,1.60
2023-03-04T14:38:52.502Z,1.50
2023-03-04T14:41:31.372Z,1.40
2023-03-04T14:44:11.624Z,1.30
2023-03-04T14:47:00.695Z,1.20
2023-03-04T14:49:32.924Z,1.00
2023-03-04T14:52:00.467Z,1.00
2023-03-04T14:54:34.559Z,0.90
2023-03-04T14:57:22.252Z,0.80
2023-03-04T14:59:49.188Z,0.70
2023-03-04T15:02:21.300Z,0.70
2023-03-04T15:04:49.502Z,0.70
2023-03-04T15:07:20.092Z,0.70
2023-03-04T15:09:55.382Z,0.80
2023-03-04T15:12:28.863Z,0.80
2023-03-04T15:14:58.801Z,0.90
2023-03-04T15:17:25.790Z,0.90
2023-03-04T15:20:19.902Z,1.00
2023-03-04T15:22:49.592Z,1.00
2023-03-04T15:25:20.398Z,1.00
2023-03-04T15:27:48.932Z,1.10
2023-03-04T15:30:24.880Z,1.00
2023-03-04T15:32:51.881Z,1.00
2023-03-04T15:35:20.053Z,1.10
2023-03-04T15:37:49.602Z,1.00
2023-03-04T15:40:46.560Z,0.90
2023-03-04T15:43:22.252Z,0.70
2023-03-04T15:45:50.960Z,0.70
2023-03-04T15:48:19.066Z,0.60
2023-03-04T15:50:51.380Z,0.50
2023-03-04T15:53:28.005Z,0.50
2023-03-04T15:55:55.171Z,0.40
2023-03-04T15:58:22.270Z,0.40
2023-03-04T16:00:49.286Z,0.40
2023-03-04T16:03:18.277Z,0.40
2023-03-04T16:05:47.643Z,0.30
2023-03-04T16:08:18.378Z,0.30
2023-03-04T16:10:45.984Z,0.20
2023-03-04T16:13:19.955Z,0.20
2023-03-04T16:15:47.459Z,0.20
2023-03-04T16:18:16.005Z,0.20
2023-03-04T16:20:46.065Z,0.10
2023-03-04T16:23:24.695Z,0.00
2023-03-04T16:25:55.863Z,0.00
2023-03-04T16:28:23.177Z,-0.10
2023-03-04T16:30:50.410Z,-0.20
2023-03-04T16:33:17.358Z,-0.30
2023-03-04T16:35:45.608Z,-0.30
2023-03-04T16:38:26.199Z,-0.30
2023-03-04T16:40:53.468Z,-0.30
2023-03-04T16:43:22.099Z,-0.30
2023-03-04T16:45:49.472Z,-0.40
2023-03-04T16:48:16.959Z,-0.40
2023-03-04T16:50:44.684Z,-0.40
2023-03-04T16:53:34.471Z,-0.40
2023-03-04T16:56:06.009Z,-0.40
2023-03-04T16:58:33.211Z,-0.40
2023-03-04T17:01:01.379Z,-0.40
2023-03-04T17:03:28.521Z,-0.40
2023-03-04T17:05:55.540Z,-0.40
2023-03-04T17:08:22.461Z,-0.50
2023-03-04T17:10:50.480Z,-0.50
2023-03-04T17:13:17.414Z,-0.50
2023-03-04T17:15:45.694Z,-0.50
2023-03-04T17:18:12.788Z,-0.60
2023-03-04T17:20:40.617Z,-0.60
2023-03-04T17:23:07.530Z,-0.50
2023-03-04T17:25:34.518Z,-0.60
2023-03-04T17:28:01.450Z,-0.70
2023-03-04T17:30:28.825Z,-0.70
2023-03-04T17:32:55.812Z,-0.70
2023-03-04T17:35:22.815Z,-0.70
2023-03-04T17:37:49.744Z,-0.70
2023-03-04T17:40:16.888Z,-0.70
2023-03-04T17:42:44.221Z,-0.70
2023-03-04T17:45:11.773Z,-0.60
2023-03-04T17:47:39.346Z,-0.70
2023-03-04T17:50:07.633Z,-1.10
2023-03-04T17:52:34.589Z,-0.70
2023-03-04T17:55:01.517Z,-0.80
2023-03-04T17:57:28.563Z,-0.80
2023-03-04T17:59:56.270Z,-0.80
2023-03-04T18:02:23.377Z,-0.70
2023-03-04T18:04:50.874Z,-0.80
2023-03-04T18:07:17.907Z,-0.80
2023-03-04T18:09:47.081Z,-0.80
2023-03-04T18:12:14.574Z,-0.90
2023-03-04T18:14:41.557Z,-0.80
2023-03-04T18:17:08.466Z,-0.80
2023-03-04T18:19:35.404Z,-0.90
2023-03-04T18:22:02.315Z,-0.90
2023-03-04T18:24:29.278Z,-0.90
2023-03-04T18:26:57.033Z,-0.90
2023-03-04T18:29:24.112Z,-0.90
2023-03-04T18:31:51.113Z,-0.90
2023-03-04T18:34:18.122Z,-0.90
2023-03-04T18:36:45.325Z,-0.90
2023-03-04T18:39:12.215Z,-0.90
2023-03-04T18:41:39.324Z,-0.90
2023-03-04T18:44:09.799Z,-0.90
2023-03-04T18:46:45.420Z,-0.80
2023-03-04T18:49:14.805Z,-0.80
2023-03-04T18:51:41.856Z,-0.90
2023-03-04T18:54:08.800Z,-0.80
2023-03-04T18:56:46.714Z,-0.80
2023-03-04T18:59:31.608Z,-1.00
2023-03-04T19:01:59.836Z,-1.00
2023-03-04T19:04:28.736Z,-0.90
2023-03-04T19:06:57.889Z,-1.00
2023-03-04T19:09:25.004Z,-0.90
2023-03-04T19:11:52.038Z,-1.00
2023-03-04T19:14:19.047Z,-1.00
2023-03-04T19:16:46.061Z,-1.10
2023-03-04T19:19:13.385Z,-1.00
2023-03-04T19:21:40.512Z,-1.10
2023-03-04T19:24:07.877Z,-1.30
2023-03-04T19:26:35.159Z,-1.30
2023-03-04T19:29:02.102Z,-1.30
2023-03-04T19:31:29.320Z,-1.30
2023-03-04T19:33:56.292Z,-1.30
2023-03-04T19:36:23.319Z,-1.30
2023-03-04T19:38:50.286Z,-1.30
2023-03-04T19:41:18.101Z,-1.30
2023-03-04T19:43:46.142Z,-1.40
2023-03-04T19:46:14.090Z,-1.50
2023-03-04T19:48:41.767Z,-1.50
2023-03-04T19:51:16.913Z,-1.60
2023-03-04T19:53:43.854Z,-1.50
2023-03-04T19:56:11.432Z,-1.40
2023-03-04T19:58:38.397Z,-1.30
2023-03-04T20:01:05.669Z,-1.30
2023-03-04T20:03:33.079Z,-1.40
2023-03-04T20:06:05.861Z,-1.20
2023-03-04T20:08:33.081Z,-1.10
2023-03-04T20:11:00.367Z,-1.10
2023-03-04T20:13:27.467Z,-1.20
2023-03-04T20:15:54.445Z,-1.40
2023-03-04T20:18:23.032Z,-1.20
2023-03-04T20:20:51.988Z,-1.20
2023-03-04T20:23:20.450Z,-1.20
2023-03-04T20:25:49.168Z,-1.20
2023-03-04T20:28:16.181Z,-1.20
2023-03-04T20:30:43.166Z,-1.20
2023-03-04T20:33:10.089Z,-1.30
2023-03-04T20:35:38.648Z,-1.30
2023-03-04T20:38:05.571Z,-1.40
2023-03-04T20:40:32.645Z,-1.40
2023-03-04T20:42:59.645Z,-1.40
2023-03-04T20:45:26.510Z,-1.20
2023-03-04T20:47:53.434Z,-1.20
2023-03-04T20:50:20.514Z,-1.10
2023-03-04T20:52:48.408Z,-1.20
2023-03-04T20:55:15.382Z,-1.20
2023-03-04T20:57:42.316Z,-1.30
2023-03-04T21:00:10.039Z,-1.30
2023-03-04T21:02:37.044Z,-1.30
2023-03-04T21:05:04.347Z,-1.30
2023-03-04T21:07:31.246Z,-1.30
2023-03-04T21:09:58.311Z,-1.40
2023-03-04T21:12:26.165Z,-1.30
2023-03-04T21:14:53.166Z,-1.30
2023-03-04T21:17:20.059Z,-1.20
2023-03-04T21:19:47.134Z,-1.30
2023-03-04T21:22:17.013Z,-1.30
2023-03-04T21:24:44.887Z,-1.30
2023-03-04T21:27:13.710Z,-1.30
2023-03-04T21:29:40.663Z,-1.30
2023-03-04T21:32:25.260Z,-1.20
2023-03-04T21:34:53.304Z,-1.20
2023-03-04T21:37:25.590Z,-1.10
2023-03-04T21:39:53.218Z,-1.10
2023-03-04T21:42:20.351Z,-1.10
2023-03-04T21:44:50.525Z,-1.20
2023-03-04T21:47:18.825Z,-1.20
2023-03-04T21:49:46.720Z,-1.10
2023-03-04T21:52:13.850Z,-1.20
2023-03-04T21:54:40.816Z,-1.20
2023-03-04T21:57:07.793Z,-1.20
2023-03-04T21:59:34.789Z,-1.10
2023-03-04T22:02:02.708Z,-1.00
2023-03-04T22:04:29.690Z,-0.90
2023-03-04T22:06:56.763Z,-1.00
2023-03-04T22:09:23.705Z,-1.00
2023-03-04T22:11:50.676Z,-1.00
2023-03-04T22:14:17.735Z,-1.10
2023-03-04T22:16:54.521Z,-1.20
2023-03-04T22:19:23.829Z,-1.30
2023-03-04T22:21:52.037Z,-1.20
2023-03-04T22:24:19.663Z,-1.20
2023-03-04T22:26:46.751Z,-1.10
2023-03-04T22:29:13.842Z,-1.10
2023-03-04T22:31:41.029Z,-1.00
2023-03-04T22:34:13.691Z,-0.90
2023-03-04T22:36:42.745Z,-1.00
2023-03-04T22:39:12.343Z,-0.90
2023-03-04T22:41:39.329Z,-1.00
2023-03-04T22:44:06.457Z,-1.00
2023-03-04T22:46:36.466Z,-1.10
2023-03-04T22:49:06.521Z,-1.10
2023-03-04T22:51:33.510Z,-1.10
2023-03-04T22:54:00.393Z,-1.10
2023-03-04T22:56:27.347Z,-0.90
2023-03-04T22:58:54.265Z,-1.00
2023-03-04T23:01:21.327Z,-0.90
2023-03-04T23:03:49.423Z,-1.00
2023-03-04T23:06:19.826Z,-1.00
2023-03-04T23:08:48.718Z,-1.00
2023-03-04T23:11:26.456Z,-1.00
2023-03-04T23:13:54.610Z,-1.10
2023-03-04T23:16:22.358Z,-1.10
2023-03-04T23:18:50.361Z,-0.90
2023-03-04T23:21:25.633Z,-0.90
2023-03-04T23:23:52.863Z,-0.90
2023-03-04T23:26:28.637Z,-0.90
2023-03-04T23:28:57.242Z,-1.00
2023-03-04T23:31:24.400Z,-1.00
2023-03-04T23:33:51.688Z,-1.00
2023-03-04T23:36:19.502Z,-1.20
2023-03-04T23:38:48.532Z,-1.30
2023-03-04T23:41:19.959Z,-1.30
2023-03-04T23:43:47.873Z,-1.30
2023-03-04T23:46:15.680Z,-1.20
2023-03-04T23:48:46.454Z,-1.10
2023-03-04T23:51:15.579Z,-1.30
2023-03-04T23:53:42.757Z,-1.20
2023-03-04T23:56:16.060Z,-1.20
2023-03-04T23:58:43.680Z,-1.30
